sensor_id;sensor_type;location;lat;lon;timestamp;temperature;humidity
16974;DHT22;8603;46.944;7.412;2022-08-04T00:02:01;21.60;99.90
16974;DHT22;8603;46.944;7.412;2022-08-04T00:04:43;21.60;99.90
16974;DHT22;8603;46.944;7.412;2022-08-04T00:09:51;21.50;99.90
16974;DHT22;8603;46.944;7.412;2022-08-04T00:12:24;21.40;99.90
16974;DHT22;8603;46.944;7.412;2022-08-04T00:14:57;21.30;99.90
16974;DHT22;8603;46.944;7.412;2022-08-04T00:17:27;21.30;99.90
16974;DHT22;8603;46.944;7.412;2022-08-04T00:19:55;21.30;99.90
16974;DHT22;8603;46.944;7.412;2022-08-04T00:22:26;21.20;99.90
16974;DHT22;8603;46.944;7.412;2022-08-04T00:24:54;21.10;99.90
16974;DHT22;8603;46.944;7.412;2022-08-04T00:27:35;21.10;99.90
16974;DHT22;8603;46.944;7.412;2022-08-04T00:30:11;21.00;99.90
16974;DHT22;8603;46.944;7.412;2022-08-04T00:32:49;20.90;99.90
16974;DHT22;8603;46.944;7.412;2022-08-04T00:35:18;20.90;99.90
16974;DHT22;8603;46.944;7.412;2022-08-04T00:37:44;20.80;99.90
16974;DHT22;8603;46.944;7.412;2022-08-04T00:42:53;20.70;99.90
16974;DHT22;8603;46.944;7.412;2022-08-04T00:45:40;20.70;99.90
16974;DHT22;8603;46.944;7.412;2022-08-04T00:51:13;20.60;99.90
16974;DHT22;8603;46.944;7.412;2022-08-04T01:02:23;20.50;99.90
16974;DHT22;8603;46.944;7.412;2022-08-04T01:08:53;20.40;99.90
16974;DHT22;8603;46.944;7.412;2022-08-04T01:11:03;20.30;99.90
16974;DHT22;8603;46.944;7.412;2022-08-04T01:16:17;20.20;99.90
16974;DHT22;8603;46.944;7.412;2022-08-04T01:30:36;20.10;99.90
16974;DHT22;8603;46.944;7.412;2022-08-04T01:33:14;20.10;99.90
16974;DHT22;8603;46.944;7.412;2022-08-04T01:35:52;20.00;99.90
16974;DHT22;8603;46.944;7.412;2022-08-04T01:38:35;20.00;99.90
16974;DHT22;8603;46.944;7.412;2022-08-04T01:41:06;20.00;99.90
16974;DHT22;8603;46.944;7.412;2022-08-04T01:43:34;19.90;99.90
16974;DHT22;8603;46.944;7.412;2022-08-04T01:46:04;20.00;99.90
16974;DHT22;8603;46.944;7.412;2022-08-04T01:48:30;20.00;99.90
16974;DHT22;8603;46.944;7.412;2022-08-04T01:51:02;20.00;99.90
16974;DHT22;8603;46.944;7.412;2022-08-04T01:53:36;20.10;99.90
16974;DHT22;8603;46.944;7.412;2022-08-04T01:56:04;20.10;99.90
16974;DHT22;8603;46.944;7.412;2022-08-04T01:58:32;20.00;99.90
16974;DHT22;8603;46.944;7.412;2022-08-04T02:01:10;20.00;99.90
16974;DHT22;8603;46.944;7.412;2022-08-04T02:03:40;20.00;99.90
16974;DHT22;8603;46.944;7.412;2022-08-04T02:15:41;19.80;99.90
16974;DHT22;8603;46.944;7.412;2022-08-04T02:21:03;19.70;99.90
16974;DHT22;8603;46.944;7.412;2022-08-04T02:23:30;19.70;99.90
16974;DHT22;8603;46.944;7.412;2022-08-04T02:26:04;19.70;99.90
16974;DHT22;8603;46.944;7.412;2022-08-04T02:31:32;19.60;99.90
16974;DHT22;8603;46.944;7.412;2022-08-04T02:34:08;19.50;99.90
16974;DHT22;8603;46.944;7.412;2022-08-04T02:36:42;19.40;99.90
16974;DHT22;8603;46.944;7.412;2022-08-04T02:42:52;19.30;99.90
16974;DHT22;8603;46.944;7.412;2022-08-04T02:45:22;19.10;99.90
16974;DHT22;8603;46.944;7.412;2022-08-04T02:47:49;19.10;99.90
16974;DHT22;8603;46.944;7.412;2022-08-04T02:50:19;19.10;99.90
16974;DHT22;8603;46.944;7.412;2022-08-04T02:52:44;19.10;99.90
16974;DHT22;8603;46.944;7.412;2022-08-04T02:55:12;19.00;99.90
16974;DHT22;8603;46.944;7.412;2022-08-04T02:57:39;19.00;99.90
16974;DHT22;8603;46.944;7.412;2022-08-04T03:00:06;19.00;99.90
16974;DHT22;8603;46.944;7.412;2022-08-04T03:17:20;18.90;99.90
16974;DHT22;8603;46.944;7.412;2022-08-04T03:23:15;18.90;99.90
16974;DHT22;8603;46.944;7.412;2022-08-04T03:28:55;18.80;99.90
16974;DHT22;8603;46.944;7.412;2022-08-04T03:40:45;18.70;99.90
16974;DHT22;8603;46.944;7.412;2022-08-04T04:01:42;18.50;99.90
16974;DHT22;8603;46.944;7.412;2022-08-04T04:15:46;18.50;99.90
16974;DHT22;8603;46.944;7.412;2022-08-04T04:25:30;18.50;99.90
16974;DHT22;8603;46.944;7.412;2022-08-04T04:30:18;18.40;99.90
16974;DHT22;8603;46.944;7.412;2022-08-04T04:36:28;18.50;99.90
16974;DHT22;8603;46.944;7.412;2022-08-04T04:39:38;18.50;99.90
16974;DHT22;8603;46.944;7.412;2022-08-04T04:45:08;18.50;99.90
16974;DHT22;8603;46.944;7.412;2022-08-04T04:48:01;18.60;99.90
16974;DHT22;8603;46.944;7.412;2022-08-04T04:50:43;18.60;99.90
16974;DHT22;8603;46.944;7.412;2022-08-04T04:53:16;18.70;99.90
16974;DHT22;8603;46.944;7.412;2022-08-04T04:55:50;18.70;99.90
16974;DHT22;8603;46.944;7.412;2022-08-04T04:58:19;18.70;99.90
16974;DHT22;8603;46.944;7.412;2022-08-04T05:14:58;19.00;99.90
16974;DHT22;8603;46.944;7.412;2022-08-04T05:17:56;19.10;99.90
16974;DHT22;8603;46.944;7.412;2022-08-04T05:20:54;19.20;99.90
16974;DHT22;8603;46.944;7.412;2022-08-04T05:23:32;19.30;99.90
16974;DHT22;8603;46.944;7.412;2022-08-04T05:26:14;19.40;99.90
16974;DHT22;8603;46.944;7.412;2022-08-04T05:28:44;19.50;99.90
16974;DHT22;8603;46.944;7.412;2022-08-04T05:31:22;19.70;99.90
16974;DHT22;8603;46.944;7.412;2022-08-04T05:34:04;19.80;99.90
16974;DHT22;8603;46.944;7.412;2022-08-04T05:36:50;19.90;99.90
16974;DHT22;8603;46.944;7.412;2022-08-04T05:39:20;20.00;99.90
16974;DHT22;8603;46.944;7.412;2022-08-04T05:41:48;20.20;99.90
16974;DHT22;8603;46.944;7.412;2022-08-04T05:44:18;20.30;99.90
16974;DHT22;8603;46.944;7.412;2022-08-04T05:46:48;20.40;99.90
16974;DHT22;8603;46.944;7.412;2022-08-04T05:49:14;20.40;99.90
16974;DHT22;8603;46.944;7.412;2022-08-04T05:51:42;20.50;99.90
16974;DHT22;8603;46.944;7.412;2022-08-04T05:54:09;20.60;99.90
16974;DHT22;8603;46.944;7.412;2022-08-04T05:56:35;20.70;99.90
16974;DHT22;8603;46.944;7.412;2022-08-04T05:59:02;20.90;99.90
16974;DHT22;8603;46.944;7.412;2022-08-04T06:01:30;21.00;99.90
16974;DHT22;8603;46.944;7.412;2022-08-04T06:04:01;21.20;99.90
16974;DHT22;8603;46.944;7.412;2022-08-04T06:06:29;21.40;99.90
16974;DHT22;8603;46.944;7.412;2022-08-04T06:08:55;21.70;99.90
16974;DHT22;8603;46.944;7.412;2022-08-04T06:11:26;22.00;99.90
16974;DHT22;8603;46.944;7.412;2022-08-04T06:13:59;22.50;99.90
16974;DHT22;8603;46.944;7.412;2022-08-04T06:16:34;23.10;99.90
16974;DHT22;8603;46.944;7.412;2022-08-04T06:19:12;23.70;99.90
16974;DHT22;8603;46.944;7.412;2022-08-04T06:21:41;24.20;99.90
16974;DHT22;8603;46.944;7.412;2022-08-04T06:24:10;24.40;99.90
16974;DHT22;8603;46.944;7.412;2022-08-04T06:26:40;24.60;99.90
16974;DHT22;8603;46.944;7.412;2022-08-04T06:29:11;24.70;99.90
16974;DHT22;8603;46.944;7.412;2022-08-04T06:32:00;24.80;99.90
16974;DHT22;8603;46.944;7.412;2022-08-04T06:34:42;24.80;99.90
16974;DHT22;8603;46.944;7.412;2022-08-04T06:37:11;24.70;99.90
16974;DHT22;8603;46.944;7.412;2022-08-04T06:39:40;24.70;99.90
16974;DHT22;8603;46.944;7.412;2022-08-04T06:42:10;24.70;99.90
16974;DHT22;8603;46.944;7.412;2022-08-04T06:44:46;24.70;99.90
16974;DHT22;8603;46.944;7.412;2022-08-04T06:47:12;24.70;99.90
16974;DHT22;8603;46.944;7.412;2022-08-04T06:49:47;24.80;99.90
16974;DHT22;8603;46.944;7.412;2022-08-04T06:52:29;24.90;99.90
16974;DHT22;8603;46.944;7.412;2022-08-04T06:55:06;25.40;99.90
16974;DHT22;8603;46.944;7.412;2022-08-04T06:57:41;26.00;99.90
16974;DHT22;8603;46.944;7.412;2022-08-04T07:00:32;26.60;99.90
16974;DHT22;8603;46.944;7.412;2022-08-04T07:03:09;27.10;99.90
16974;DHT22;8603;46.944;7.412;2022-08-04T07:06:09;27.50;99.90
16974;DHT22;8603;46.944;7.412;2022-08-04T07:08:44;28.20;99.90
16974;DHT22;8603;46.944;7.412;2022-08-04T07:11:48;28.70;99.90
16974;DHT22;8603;46.944;7.412;2022-08-04T07:14:22;29.40;99.90
16974;DHT22;8603;46.944;7.412;2022-08-04T07:16:54;29.90;99.90
16974;DHT22;8603;46.944;7.412;2022-08-04T07:19:32;30.40;99.90
16974;DHT22;8603;46.944;7.412;2022-08-04T07:22:01;30.90;99.90
16974;DHT22;8603;46.944;7.412;2022-08-04T07:24:35;31.30;99.90
16974;DHT22;8603;46.944;7.412;2022-08-04T07:27:15;31.70;99.90
16974;DHT22;8603;46.944;7.412;2022-08-04T07:29:53;32.20;99.90
16974;DHT22;8603;46.944;7.412;2022-08-04T07:32:26;32.60;99.90
16974;DHT22;8603;46.944;7.412;2022-08-04T07:34:55;33.10;99.90
16974;DHT22;8603;46.944;7.412;2022-08-04T07:37:24;33.50;99.90
16974;DHT22;8603;46.944;7.412;2022-08-04T07:39:54;33.90;98.90
16974;DHT22;8603;46.944;7.412;2022-08-04T07:42:39;34.20;97.50
16974;DHT22;8603;46.944;7.412;2022-08-04T07:45:26;34.40;97.10
16974;DHT22;8603;46.944;7.412;2022-08-04T07:47:57;34.60;94.90
16974;DHT22;8603;46.944;7.412;2022-08-04T07:50:31;34.80;95.10
16974;DHT22;8603;46.944;7.412;2022-08-04T07:52:57;35.00;94.10
16974;DHT22;8603;46.944;7.412;2022-08-04T07:55:23;35.20;93.10
16974;DHT22;8603;46.944;7.412;2022-08-04T07:57:51;35.50;92.70
16974;DHT22;8603;46.944;7.412;2022-08-04T08:00:19;35.70;92.70
16974;DHT22;8603;46.944;7.412;2022-08-04T08:02:50;35.90;92.00
16974;DHT22;8603;46.944;7.412;2022-08-04T08:05:18;36.10;91.30
16974;DHT22;8603;46.944;7.412;2022-08-04T08:07:49;36.10;90.40
16974;DHT22;8603;46.944;7.412;2022-08-04T08:10:19;36.20;91.40
16974;DHT22;8603;46.944;7.412;2022-08-04T08:12:45;36.50;90.50
16974;DHT22;8603;46.944;7.412;2022-08-04T08:15:14;36.60;88.60
16974;DHT22;8603;46.944;7.412;2022-08-04T08:17:40;36.80;86.50
16974;DHT22;8603;46.944;7.412;2022-08-04T08:20:09;37.00;85.90
16974;DHT22;8603;46.944;7.412;2022-08-04T08:22:36;36.90;86.60
16974;DHT22;8603;46.944;7.412;2022-08-04T08:25:13;37.00;87.30
16974;DHT22;8603;46.944;7.412;2022-08-04T08:27:47;37.10;87.00
16974;DHT22;8603;46.944;7.412;2022-08-04T08:30:13;37.30;86.80
16974;DHT22;8603;46.944;7.412;2022-08-04T08:32:48;37.50;84.70
16974;DHT22;8603;46.944;7.412;2022-08-04T08:35:23;37.50;84.30
16974;DHT22;8603;46.944;7.412;2022-08-04T08:37:56;37.60;83.80
16974;DHT22;8603;46.944;7.412;2022-08-04T08:40:32;37.50;82.10
16974;DHT22;8603;46.944;7.412;2022-08-04T08:51:33;38.00;81.10
16974;DHT22;8603;46.944;7.412;2022-08-04T08:57:24;38.40;79.00
16974;DHT22;8603;46.944;7.412;2022-08-04T09:00:23;38.50;79.10
16974;DHT22;8603;46.944;7.412;2022-08-04T09:15:17;38.60;76.20
16974;DHT22;8603;46.944;7.412;2022-08-04T09:17:49;38.60;75.10
16974;DHT22;8603;46.944;7.412;2022-08-04T09:20:30;38.40;76.20
16974;DHT22;8603;46.944;7.412;2022-08-04T09:23:16;38.00;75.70
16974;DHT22;8603;46.944;7.412;2022-08-04T09:25:56;37.80;75.50
16974;DHT22;8603;46.944;7.412;2022-08-04T09:28:24;37.80;74.10
16974;DHT22;8603;46.944;7.412;2022-08-04T09:31:11;37.80;74.70
16974;DHT22;8603;46.944;7.412;2022-08-04T09:42:27;38.40;73.30
16974;DHT22;8603;46.944;7.412;2022-08-04T09:45:15;38.60;72.60
16974;DHT22;8603;46.944;7.412;2022-08-04T09:47:58;38.70;70.70
16974;DHT22;8603;46.944;7.412;2022-08-04T09:50:33;38.80;72.00
16974;DHT22;8603;46.944;7.412;2022-08-04T09:58:49;38.70;69.10
16974;DHT22;8603;46.944;7.412;2022-08-04T10:01:22;38.70;67.80
16974;DHT22;8603;46.944;7.412;2022-08-04T10:03:55;38.70;68.20
16974;DHT22;8603;46.944;7.412;2022-08-04T10:09:56;38.60;68.80
16974;DHT22;8603;46.944;7.412;2022-08-04T10:15:39;38.30;70.10
16974;DHT22;8603;46.944;7.412;2022-08-04T10:18:42;38.20;65.90
16974;DHT22;8603;46.944;7.412;2022-08-04T10:26:29;37.70;67.40
16974;DHT22;8603;46.944;7.412;2022-08-04T10:29:09;37.50;68.90
16974;DHT22;8603;46.944;7.412;2022-08-04T10:31:44;37.30;70.30
16974;DHT22;8603;46.944;7.412;2022-08-04T10:34:18;37.10;69.40
16974;DHT22;8603;46.944;7.412;2022-08-04T10:36:58;36.80;69.30
16974;DHT22;8603;46.944;7.412;2022-08-04T10:39:35;36.60;70.30
16974;DHT22;8603;46.944;7.412;2022-08-04T10:42:20;36.30;70.20
16974;DHT22;8603;46.944;7.412;2022-08-04T10:45:04;36.10;71.00
16974;DHT22;8603;46.944;7.412;2022-08-04T10:47:37;36.00;71.70
16974;DHT22;8603;46.944;7.412;2022-08-04T10:50:09;36.00;70.90
16974;DHT22;8603;46.944;7.412;2022-08-04T10:52:52;35.90;70.70
16974;DHT22;8603;46.944;7.412;2022-08-04T10:55:26;35.80;70.10
16974;DHT22;8603;46.944;7.412;2022-08-04T10:58:06;35.70;69.00
16974;DHT22;8603;46.944;7.412;2022-08-04T11:00:35;35.60;69.80
16974;DHT22;8603;46.944;7.412;2022-08-04T11:08:30;35.20;70.10
16974;DHT22;8603;46.944;7.412;2022-08-04T11:13:44;35.00;72.10
16974;DHT22;8603;46.944;7.412;2022-08-04T11:16:25;35.00;70.80
16974;DHT22;8603;46.944;7.412;2022-08-04T11:22:13;34.80;71.50
16974;DHT22;8603;46.944;7.412;2022-08-04T11:25:00;34.80;71.30
16974;DHT22;8603;46.944;7.412;2022-08-04T11:30:24;34.80;68.90
16974;DHT22;8603;46.944;7.412;2022-08-04T11:33:30;34.80;69.80
16974;DHT22;8603;46.944;7.412;2022-08-04T11:36:05;34.80;69.80
16974;DHT22;8603;46.944;7.412;2022-08-04T11:38:37;34.90;69.70
16974;DHT22;8603;46.944;7.412;2022-08-04T11:41:10;34.90;69.50
16974;DHT22;8603;46.944;7.412;2022-08-04T11:43:55;35.00;68.20
16974;DHT22;8603;46.944;7.412;2022-08-04T11:46:35;35.00;68.70
16974;DHT22;8603;46.944;7.412;2022-08-04T11:49:32;35.00;69.20
16974;DHT22;8603;46.944;7.412;2022-08-04T11:51:57;34.90;69.20
16974;DHT22;8603;46.944;7.412;2022-08-04T11:54:24;34.80;68.10
16974;DHT22;8603;46.944;7.412;2022-08-04T11:56:49;34.80;68.50
16974;DHT22;8603;46.944;7.412;2022-08-04T11:59:17;34.70;68.10
16974;DHT22;8603;46.944;7.412;2022-08-04T12:04:56;34.80;69.80
16974;DHT22;8603;46.944;7.412;2022-08-04T12:10:35;34.80;69.70
16974;DHT22;8603;46.944;7.412;2022-08-04T12:13:34;34.90;69.40
16974;DHT22;8603;46.944;7.412;2022-08-04T12:16:17;34.90;69.70
16974;DHT22;8603;46.944;7.412;2022-08-04T12:18:51;34.90;69.50
16974;DHT22;8603;46.944;7.412;2022-08-04T12:21:42;34.90;68.50
16974;DHT22;8603;46.944;7.412;2022-08-04T12:24:19;34.90;68.10
16974;DHT22;8603;46.944;7.412;2022-08-04T12:26:52;34.90;68.90
16974;DHT22;8603;46.944;7.412;2022-08-04T12:29:21;35.00;68.40
16974;DHT22;8603;46.944;7.412;2022-08-04T12:31:59;35.00;68.90
16974;DHT22;8603;46.944;7.412;2022-08-04T12:35:18;35.10;68.80
16974;DHT22;8603;46.944;7.412;2022-08-04T12:38:06;35.10;67.80
16974;DHT22;8603;46.944;7.412;2022-08-04T12:40:47;35.10;68.00
16974;DHT22;8603;46.944;7.412;2022-08-04T12:43:17;35.10;67.70
16974;DHT22;8603;46.944;7.412;2022-08-04T12:45:48;35.10;68.00
16974;DHT22;8603;46.944;7.412;2022-08-04T12:48:17;35.20;67.20
16974;DHT22;8603;46.944;7.412;2022-08-04T12:50:49;35.10;67.10
16974;DHT22;8603;46.944;7.412;2022-08-04T12:53:25;35.20;67.40
16974;DHT22;8603;46.944;7.412;2022-08-04T12:55:52;35.20;67.70
16974;DHT22;8603;46.944;7.412;2022-08-04T12:58:24;35.20;67.20
16974;DHT22;8603;46.944;7.412;2022-08-04T13:00:58;35.20;67.20
16974;DHT22;8603;46.944;7.412;2022-08-04T13:03:29;35.20;67.00
16974;DHT22;8603;46.944;7.412;2022-08-04T13:06:00;35.20;66.70
16974;DHT22;8603;46.944;7.412;2022-08-04T13:08:27;35.30;67.00
16974;DHT22;8603;46.944;7.412;2022-08-04T13:10:56;35.30;66.40
16974;DHT22;8603;46.944;7.412;2022-08-04T13:13:28;35.30;66.40
16974;DHT22;8603;46.944;7.412;2022-08-04T13:16:03;35.30;66.60
16974;DHT22;8603;46.944;7.412;2022-08-04T13:18:33;35.30;67.30
16974;DHT22;8603;46.944;7.412;2022-08-04T13:21:16;35.30;67.30
16974;DHT22;8603;46.944;7.412;2022-08-04T13:23:43;35.40;66.40
16974;DHT22;8603;46.944;7.412;2022-08-04T13:26:14;35.30;66.50
16974;DHT22;8603;46.944;7.412;2022-08-04T13:28:44;35.40;66.60
16974;DHT22;8603;46.944;7.412;2022-08-04T13:31:25;35.40;66.40
16974;DHT22;8603;46.944;7.412;2022-08-04T13:33:53;35.40;65.40
16974;DHT22;8603;46.944;7.412;2022-08-04T13:36:24;35.40;66.40
16974;DHT22;8603;46.944;7.412;2022-08-04T13:38:57;35.40;65.80
16974;DHT22;8603;46.944;7.412;2022-08-04T13:41:26;35.40;65.10
16974;DHT22;8603;46.944;7.412;2022-08-04T13:43:58;35.50;65.20
16974;DHT22;8603;46.944;7.412;2022-08-04T13:46:39;35.50;64.90
16974;DHT22;8603;46.944;7.412;2022-08-04T13:49:11;35.50;64.90
16974;DHT22;8603;46.944;7.412;2022-08-04T13:51:38;35.50;64.10
16974;DHT22;8603;46.944;7.412;2022-08-04T13:54:05;35.50;64.80
16974;DHT22;8603;46.944;7.412;2022-08-04T13:56:38;35.50;65.00
16974;DHT22;8603;46.944;7.412;2022-08-04T13:59:10;35.50;65.20
16974;DHT22;8603;46.944;7.412;2022-08-04T14:01:42;35.60;64.60
16974;DHT22;8603;46.944;7.412;2022-08-04T14:04:15;35.60;64.60
16974;DHT22;8603;46.944;7.412;2022-08-04T14:06:55;35.60;64.00
16974;DHT22;8603;46.944;7.412;2022-08-04T14:09:23;35.60;62.80
16974;DHT22;8603;46.944;7.412;2022-08-04T14:11:55;35.50;62.00
16974;DHT22;8603;46.944;7.412;2022-08-04T14:14:32;35.50;60.80
16974;DHT22;8603;46.944;7.412;2022-08-04T14:17:09;35.50;61.30
16974;DHT22;8603;46.944;7.412;2022-08-04T14:24:59;35.50;61.30
16974;DHT22;8603;46.944;7.412;2022-08-04T14:27:28;35.50;61.60
16974;DHT22;8603;46.944;7.412;2022-08-04T14:29:54;35.50;61.70
16974;DHT22;8603;46.944;7.412;2022-08-04T14:32:19;35.50;60.20
16974;DHT22;8603;46.944;7.412;2022-08-04T14:34:45;35.50;60.30
16974;DHT22;8603;46.944;7.412;2022-08-04T14:37:15;35.50;60.00
16974;DHT22;8603;46.944;7.412;2022-08-04T14:39:48;35.50;59.70
16974;DHT22;8603;46.944;7.412;2022-08-04T14:42:15;35.50;60.20
16974;DHT22;8603;46.944;7.412;2022-08-04T14:44:54;35.50;59.70
16974;DHT22;8603;46.944;7.412;2022-08-04T14:47:40;35.50;61.10
16974;DHT22;8603;46.944;7.412;2022-08-04T14:50:07;35.40;59.50
16974;DHT22;8603;46.944;7.412;2022-08-04T14:52:33;35.40;59.70
16974;DHT22;8603;46.944;7.412;2022-08-04T14:55:20;35.40;60.20
16974;DHT22;8603;46.944;7.412;2022-08-04T14:57:50;35.40;60.60
16974;DHT22;8603;46.944;7.412;2022-08-04T15:00:30;35.40;60.50
16974;DHT22;8603;46.944;7.412;2022-08-04T15:03:00;35.40;60.00
16974;DHT22;8603;46.944;7.412;2022-08-04T15:05:27;35.40;60.20
16974;DHT22;8603;46.944;7.412;2022-08-04T15:07:55;35.40;60.80
16974;DHT22;8603;46.944;7.412;2022-08-04T15:10:20;35.40;61.10
16974;DHT22;8603;46.944;7.412;2022-08-04T15:12:46;35.50;61.20
16974;DHT22;8603;46.944;7.412;2022-08-04T15:15:12;35.50;60.80
16974;DHT22;8603;46.944;7.412;2022-08-04T15:17:38;35.50;60.40
16974;DHT22;8603;46.944;7.412;2022-08-04T15:20:30;35.40;60.80
16974;DHT22;8603;46.944;7.412;2022-08-04T15:22:55;35.40;60.40
16974;DHT22;8603;46.944;7.412;2022-08-04T15:25:21;35.40;60.90
16974;DHT22;8603;46.944;7.412;2022-08-04T15:27:48;35.30;59.50
16974;DHT22;8603;46.944;7.412;2022-08-04T15:30:16;35.30;59.30
16974;DHT22;8603;46.944;7.412;2022-08-04T15:32:47;35.30;59.40
16974;DHT22;8603;46.944;7.412;2022-08-04T15:35:19;35.30;59.80
16974;DHT22;8603;46.944;7.412;2022-08-04T15:37:51;35.30;59.80
16974;DHT22;8603;46.944;7.412;2022-08-04T15:45:50;35.30;60.60
16974;DHT22;8603;46.944;7.412;2022-08-04T15:58:55;35.20;60.30
16974;DHT22;8603;46.944;7.412;2022-08-04T16:01:21;35.10;60.80
16974;DHT22;8603;46.944;7.412;2022-08-04T16:03:48;35.10;61.10
16974;DHT22;8603;46.944;7.412;2022-08-04T16:16:28;34.90;60.80
16974;DHT22;8603;46.944;7.412;2022-08-04T16:18:54;34.90;61.20
16974;DHT22;8603;46.944;7.412;2022-08-04T16:21:24;34.90;61.40
16974;DHT22;8603;46.944;7.412;2022-08-04T16:29:26;34.70;60.90
16974;DHT22;8603;46.944;7.412;2022-08-04T16:34:33;34.60;62.60
16974;DHT22;8603;46.944;7.412;2022-08-04T16:37:01;34.50;63.20
16974;DHT22;8603;46.944;7.412;2022-08-04T16:39:26;34.50;63.50
16974;DHT22;8603;46.944;7.412;2022-08-04T16:41:52;34.50;63.60
16974;DHT22;8603;46.944;7.412;2022-08-04T16:46:52;34.60;64.40
16974;DHT22;8603;46.944;7.412;2022-08-04T16:49:18;34.60;64.90
16974;DHT22;8603;46.944;7.412;2022-08-04T16:51:44;34.60;63.70
16974;DHT22;8603;46.944;7.412;2022-08-04T16:54:09;34.60;64.30
16974;DHT22;8603;46.944;7.412;2022-08-04T16:56:35;34.60;65.00
16974;DHT22;8603;46.944;7.412;2022-08-04T16:59:09;34.60;65.00
16974;DHT22;8603;46.944;7.412;2022-08-04T17:01:36;34.60;64.80
16974;DHT22;8603;46.944;7.412;2022-08-04T17:04:10;34.50;65.20
16974;DHT22;8603;46.944;7.412;2022-08-04T17:06:40;34.50;65.20
16974;DHT22;8603;46.944;7.412;2022-08-04T17:09:14;34.50;65.20
16974;DHT22;8603;46.944;7.412;2022-08-04T17:11:42;34.40;64.80
16974;DHT22;8603;46.944;7.412;2022-08-04T17:14:08;34.30;65.10
16974;DHT22;8603;46.944;7.412;2022-08-04T17:16:36;34.30;65.30
16974;DHT22;8603;46.944;7.412;2022-08-04T17:19:03;34.30;65.10
16974;DHT22;8603;46.944;7.412;2022-08-04T17:21:32;34.20;65.30
16974;DHT22;8603;46.944;7.412;2022-08-04T17:24:00;34.20;64.90
16974;DHT22;8603;46.944;7.412;2022-08-04T17:26:31;34.10;64.90
16974;DHT22;8603;46.944;7.412;2022-08-04T17:29:08;34.10;63.60
16974;DHT22;8603;46.944;7.412;2022-08-04T17:31:36;34.00;64.10
16974;DHT22;8603;46.944;7.412;2022-08-04T17:34:09;33.90;64.30
16974;DHT22;8603;46.944;7.412;2022-08-04T17:36:41;33.90;64.40
16974;DHT22;8603;46.944;7.412;2022-08-04T17:39:19;33.80;64.50
16974;DHT22;8603;46.944;7.412;2022-08-04T17:41:47;33.80;64.60
16974;DHT22;8603;46.944;7.412;2022-08-04T17:44:19;33.70;65.00
16974;DHT22;8603;46.944;7.412;2022-08-04T17:46:45;33.70;65.40
16974;DHT22;8603;46.944;7.412;2022-08-04T17:51:53;33.50;67.20
16974;DHT22;8603;46.944;7.412;2022-08-04T17:59:41;33.20;70.50
16974;DHT22;8603;46.944;7.412;2022-08-04T18:12:10;32.80;71.40
16974;DHT22;8603;46.944;7.412;2022-08-04T18:17:10;32.70;71.40
16974;DHT22;8603;46.944;7.412;2022-08-04T18:26:38;32.60;72.50
16974;DHT22;8603;46.944;7.412;2022-08-04T18:29:05;32.50;72.90
16974;DHT22;8603;46.944;7.412;2022-08-04T18:31:33;32.50;73.40
16974;DHT22;8603;46.944;7.412;2022-08-04T18:34:06;32.40;73.80
16974;DHT22;8603;46.944;7.412;2022-08-04T18:36:33;32.30;74.10
16974;DHT22;8603;46.944;7.412;2022-08-04T18:39:00;32.30;74.40
16974;DHT22;8603;46.944;7.412;2022-08-04T18:41:26;32.20;74.50
16974;DHT22;8603;46.944;7.412;2022-08-04T18:43:53;32.10;74.50
16974;DHT22;8603;46.944;7.412;2022-08-04T18:46:19;32.00;75.10
16974;DHT22;8603;46.944;7.412;2022-08-04T18:48:44;31.90;74.70
16974;DHT22;8603;46.944;7.412;2022-08-04T18:51:10;31.80;75.00
16974;DHT22;8603;46.944;7.412;2022-08-04T18:53:35;31.70;75.20
16974;DHT22;8603;46.944;7.412;2022-08-04T18:56:01;31.60;76.20
16974;DHT22;8603;46.944;7.412;2022-08-04T18:58:27;31.50;75.30
16974;DHT22;8603;46.944;7.412;2022-08-04T19:00:53;31.40;75.40
16974;DHT22;8603;46.944;7.412;2022-08-04T19:03:20;31.30;76.30
16974;DHT22;8603;46.944;7.412;2022-08-04T19:05:45;31.10;76.70
16974;DHT22;8603;46.944;7.412;2022-08-04T19:08:11;30.90;77.40
16974;DHT22;8603;46.944;7.412;2022-08-04T19:10:36;30.70;78.00
16974;DHT22;8603;46.944;7.412;2022-08-04T19:13:02;30.60;79.00
16974;DHT22;8603;46.944;7.412;2022-08-04T19:15:27;30.40;81.20
16974;DHT22;8603;46.944;7.412;2022-08-04T19:17:55;30.10;81.70
16974;DHT22;8603;46.944;7.412;2022-08-04T19:20:21;29.90;82.50
16974;DHT22;8603;46.944;7.412;2022-08-04T19:22:47;29.80;83.50
16974;DHT22;8603;46.944;7.412;2022-08-04T19:25:12;29.60;85.00
16974;DHT22;8603;46.944;7.412;2022-08-04T19:27:38;29.40;86.20
16974;DHT22;8603;46.944;7.412;2022-08-04T19:30:04;29.20;86.80
16974;DHT22;8603;46.944;7.412;2022-08-04T19:32:30;29.00;87.80
16974;DHT22;8603;46.944;7.412;2022-08-04T19:34:55;28.80;89.00
16974;DHT22;8603;46.944;7.412;2022-08-04T19:37:21;28.60;89.70
16974;DHT22;8603;46.944;7.412;2022-08-04T19:39:47;28.40;90.10
16974;DHT22;8603;46.944;7.412;2022-08-04T19:42:13;28.30;90.60
16974;DHT22;8603;46.944;7.412;2022-08-04T19:44:41;28.10;90.90
16974;DHT22;8603;46.944;7.412;2022-08-04T19:47:07;28.00;91.30
16974;DHT22;8603;46.944;7.412;2022-08-04T19:49:33;27.80;91.60
16974;DHT22;8603;46.944;7.412;2022-08-04T19:51:58;27.70;91.80
16974;DHT22;8603;46.944;7.412;2022-08-04T19:54:24;27.50;92.20
16974;DHT22;8603;46.944;7.412;2022-08-04T19:56:50;27.40;92.70
16974;DHT22;8603;46.944;7.412;2022-08-04T19:59:15;27.20;92.80
16974;DHT22;8603;46.944;7.412;2022-08-04T20:01:41;27.10;93.30
16974;DHT22;8603;46.944;7.412;2022-08-04T20:04:07;27.00;93.80
16974;DHT22;8603;46.944;7.412;2022-08-04T20:06:32;26.90;94.00
16974;DHT22;8603;46.944;7.412;2022-08-04T20:08:58;26.80;94.10
16974;DHT22;8603;46.944;7.412;2022-08-04T20:11:23;26.70;94.40
16974;DHT22;8603;46.944;7.412;2022-08-04T20:13:49;26.60;94.70
16974;DHT22;8603;46.944;7.412;2022-08-04T20:16:15;26.60;95.30
16974;DHT22;8603;46.944;7.412;2022-08-04T20:18:42;26.40;96.40
16974;DHT22;8603;46.944;7.412;2022-08-04T20:21:07;26.20;96.80
16974;DHT22;8603;46.944;7.412;2022-08-04T20:23:33;26.00;97.30
16974;DHT22;8603;46.944;7.412;2022-08-04T20:25:59;25.90;97.70
16974;DHT22;8603;46.944;7.412;2022-08-04T20:28:25;25.80;98.10
16974;DHT22;8603;46.944;7.412;2022-08-04T20:30:52;25.60;98.10
16974;DHT22;8603;46.944;7.412;2022-08-04T20:33:18;25.50;98.70
16974;DHT22;8603;46.944;7.412;2022-08-04T20:35:44;25.30;99.10
16974;DHT22;8603;46.944;7.412;2022-08-04T20:38:10;25.20;99.80
16974;DHT22;8603;46.944;7.412;2022-08-04T20:40:35;25.10;99.90
16974;DHT22;8603;46.944;7.412;2022-08-04T20:43:01;25.00;99.90
16974;DHT22;8603;46.944;7.412;2022-08-04T20:45:26;24.90;99.90
16974;DHT22;8603;46.944;7.412;2022-08-04T20:47:52;24.90;99.90
16974;DHT22;8603;46.944;7.412;2022-08-04T20:50:18;24.80;99.90
16974;DHT22;8603;46.944;7.412;2022-08-04T20:52:43;24.70;99.90
16974;DHT22;8603;46.944;7.412;2022-08-04T20:55:10;24.60;99.90
16974;DHT22;8603;46.944;7.412;2022-08-04T20:57:36;24.50;99.90
16974;DHT22;8603;46.944;7.412;2022-08-04T21:00:04;24.40;99.90
16974;DHT22;8603;46.944;7.412;2022-08-04T21:02:30;24.30;99.90